createdAt,value
2023-01-17T00:02:19.410Z,3.79
2023-01-17T00:05:06.798Z,3.70
2023-01-17T00:07:56.708Z,3.77
2023-01-17T00:10:26.162Z,3.84
2023-01-17T00:12:55.589Z,3.72
2023-01-17T00:15:23.763Z,3.81
2023-01-17T00:18:00.639Z,3.80
2023-01-17T00:20:55.945Z,3.84
2023-01-17T00:23:43.806Z,3.89
2023-01-17T00:26:14.867Z,3.84
2023-01-17T00:28:42.886Z,3.89
2023-01-17T00:31:14.483Z,3.85
2023-01-17T00:33:41.089Z,3.76
2023-01-17T00:36:08.577Z,3.87
2023-01-17T00:38:37.338Z,3.95
2023-01-17T00:41:09.059Z,3.84
2023-01-17T00:43:54.384Z,3.86
2023-01-17T00:46:43.280Z,3.87
2023-01-17T00:49:28.526Z,3.96
2023-01-17T00:52:13.979Z,3.96
2023-01-17T00:54:59.205Z,3.75
2023-01-17T00:57:44.865Z,3.80
2023-01-17T01:00:33.010Z,3.87
2023-01-17T01:03:20.342Z,3.87
2023-01-17T01:06:05.778Z,3.85
2023-01-17T01:08:51.167Z,3.86
2023-01-17T01:11:39.753Z,3.81
2023-01-17T01:14:30.938Z,3.80
2023-01-17T01:17:15.932Z,3.79
2023-01-17T01:20:00.747Z,3.82
2023-01-17T01:22:46.168Z,3.85
2023-01-17T01:25:31.523Z,3.89
2023-01-17T01:28:24.712Z,3.89
2023-01-17T01:31:11.953Z,3.81
2023-01-17T01:33:38.763Z,3.84
2023-01-17T01:36:08.341Z,3.86
2023-01-17T01:38:35.072Z,3.82
2023-01-17T01:41:04.001Z,3.82
2023-01-17T01:43:49.819Z,3.85
2023-01-17T01:46:21.529Z,3.83
2023-01-17T01:48:54.084Z,3.89
2023-01-17T01:51:26.411Z,3.83
2023-01-17T01:53:59.697Z,3.82
2023-01-17T01:56:27.505Z,3.90
2023-01-17T01:58:54.583Z,3.84
2023-01-17T02:01:21.336Z,3.80
2023-01-17T02:03:49.729Z,3.75
2023-01-17T02:06:48.563Z,3.81
2023-01-17T02:09:17.925Z,3.78
2023-01-17T02:11:49.465Z,3.70
2023-01-17T02:14:17.947Z,3.67
2023-01-17T02:16:56.277Z,3.63
2023-01-17T02:19:31.932Z,3.67
2023-01-17T02:21:58.465Z,3.62
2023-01-17T02:24:39.895Z,3.70
2023-01-17T02:27:45.267Z,3.65
2023-01-17T02:30:34.971Z,3.68
2023-01-17T02:33:22.800Z,3.74
2023-01-17T02:36:06.549Z,3.72
2023-01-17T02:38:41.399Z,3.78
2023-01-17T02:41:16.522Z,3.76
2023-01-17T02:43:43.463Z,3.83
2023-01-17T02:46:10.134Z,3.83
2023-01-17T02:48:37.813Z,3.83
2023-01-17T02:51:07.228Z,3.86
2023-01-17T02:53:36.579Z,3.84
2023-01-17T02:56:23.950Z,3.82
2023-01-17T02:59:18.461Z,3.79
2023-01-17T03:02:09.552Z,3.78
2023-01-17T03:04:53.675Z,3.76
2023-01-17T03:07:25.829Z,3.76
2023-01-17T03:09:57.643Z,3.77
2023-01-17T03:12:35.268Z,3.82
2023-01-17T03:15:01.880Z,3.78
2023-01-17T03:17:35.323Z,3.78
2023-01-17T03:20:02.212Z,3.82
2023-01-17T03:22:28.993Z,3.86
2023-01-17T03:24:55.605Z,3.88
2023-01-17T03:27:23.573Z,3.91
2023-01-17T03:29:52.090Z,3.95
2023-01-17T03:32:18.672Z,3.98
2023-01-17T03:34:45.272Z,3.96
2023-01-17T03:37:11.873Z,3.92
2023-01-17T03:39:41.328Z,3.98
2023-01-17T03:42:07.894Z,3.96
2023-01-17T03:44:34.547Z,3.96
2023-01-17T03:47:01.210Z,3.93
2023-01-17T03:49:27.820Z,3.87
2023-01-17T03:51:54.442Z,3.86
2023-01-17T03:54:21.133Z,3.89
2023-01-17T03:56:47.760Z,3.96
2023-01-17T03:59:16.451Z,3.93
2023-01-17T04:01:43.123Z,3.96
2023-01-17T04:04:09.800Z,3.96
2023-01-17T04:06:36.378Z,3.98
2023-01-17T04:09:05.463Z,3.95
2023-01-17T04:11:33.403Z,3.95
2023-01-17T04:13:59.980Z,3.96
2023-01-17T04:16:33.816Z,4.02
2023-01-17T04:19:00.490Z,4.01
2023-01-17T04:21:29.423Z,4.02
2023-01-17T04:23:55.989Z,4.05
2023-01-17T04:26:22.600Z,4.15
2023-01-17T04:28:49.498Z,4.06
2023-01-17T04:31:16.695Z,4.04
2023-01-17T04:33:43.377Z,4.03
2023-01-17T04:36:12.223Z,4.04
2023-01-17T04:38:38.815Z,4.03
2023-01-17T04:41:08.024Z,4.04
2023-01-17T04:43:36.762Z,4.06
2023-01-17T04:46:05.863Z,4.10
2023-01-17T04:48:33.286Z,4.08
2023-01-17T04:51:01.383Z,4.02
2023-01-17T04:53:28.341Z,4.05
2023-01-17T04:55:55.021Z,4.09
2023-01-17T04:58:21.815Z,4.11
2023-01-17T05:00:58.273Z,4.19
2023-01-17T05:03:25.154Z,4.19
2023-01-17T05:05:54.496Z,4.24
2023-01-17T05:08:21.150Z,4.28
2023-01-17T05:10:50.624Z,4.27
2023-01-17T05:13:17.540Z,4.28
2023-01-17T05:15:45.444Z,4.32
2023-01-17T05:18:14.635Z,4.35
2023-01-17T05:20:41.390Z,4.35
2023-01-17T05:23:08.138Z,4.32
2023-01-17T05:25:35.882Z,4.35
2023-01-17T05:28:03.319Z,4.43
2023-01-17T05:30:32.093Z,4.37
2023-01-17T05:33:01.438Z,4.35
2023-01-17T05:35:32.643Z,4.30
2023-01-17T05:37:59.466Z,4.35
2023-01-17T05:40:30.868Z,4.29
2023-01-17T05:42:59.286Z,4.31
2023-01-17T05:45:28.433Z,4.36
2023-01-17T05:47:56.653Z,4.28
2023-01-17T05:50:30.060Z,4.25
2023-01-17T05:53:12.064Z,4.27
2023-01-17T05:55:39.758Z,4.18
2023-01-17T05:58:13.085Z,4.15
2023-01-17T06:00:39.814Z,4.17
2023-01-17T06:03:06.414Z,4.15
2023-01-17T06:05:33.042Z,4.17
2023-01-17T06:07:59.847Z,4.12
2023-01-17T06:10:32.275Z,4.18
2023-01-17T06:13:08.492Z,4.19
2023-01-17T06:15:36.588Z,4.11
2023-01-17T06:18:11.061Z,4.14
2023-01-17T06:20:38.508Z,4.12
2023-01-17T06:23:06.398Z,4.14
2023-01-17T06:25:45.940Z,4.14
2023-01-17T06:28:16.661Z,4.16
2023-01-17T06:30:46.278Z,4.16
2023-01-17T06:33:13.791Z,4.23
2023-01-17T06:35:46.695Z,4.16
2023-01-17T06:38:15.884Z,4.12
2023-01-17T06:40:42.459Z,4.19
2023-01-17T06:43:17.813Z,4.17
2023-01-17T06:45:44.384Z,4.17
2023-01-17T06:48:20.584Z,4.19
2023-01-17T06:50:49.726Z,4.17
2023-01-17T06:53:16.592Z,4.24
2023-01-17T06:55:45.197Z,4.27
2023-01-17T06:58:11.807Z,4.28
2023-01-17T07:00:40.677Z,4.37
2023-01-17T07:03:17.384Z,4.36
2023-01-17T07:05:43.950Z,4.37
2023-01-17T07:08:12.596Z,4.37
2023-01-17T07:10:40.718Z,4.40
2023-01-17T07:13:07.313Z,4.37
2023-01-17T07:15:36.072Z,4.30
2023-01-17T07:18:03.652Z,4.28
2023-01-17T07:20:30.957Z,4.24
2023-01-17T07:22:57.516Z,4.26
2023-01-17T07:25:24.711Z,4.23
2023-01-17T07:27:58.669Z,4.26
2023-01-17T07:30:27.079Z,4.18
2023-01-17T07:32:54.187Z,4.11
2023-01-17T07:35:21.654Z,4.09
2023-01-17T07:37:49.644Z,4.07
2023-01-17T07:40:17.686Z,4.02
2023-01-17T07:42:44.941Z,3.97
2023-01-17T07:45:12.300Z,3.98
2023-01-17T07:47:38.819Z,4.00
2023-01-17T07:50:06.162Z,3.96
2023-01-17T07:52:32.777Z,4.01
2023-01-17T07:54:59.407Z,4.09
2023-01-17T07:57:26.006Z,4.21
2023-01-17T07:59:52.789Z,4.11
2023-01-17T08:02:22.208Z,4.22
2023-01-17T08:04:49.383Z,4.16
2023-01-17T08:07:18.520Z,4.15
2023-01-17T08:09:49.633Z,4.09
2023-01-17T08:12:16.753Z,4.17
2023-01-17T08:14:43.389Z,4.28
2023-01-17T08:17:15.097Z,4.20
2023-01-17T08:19:41.748Z,4.24
2023-01-17T08:22:08.513Z,4.24
2023-01-17T08:24:35.305Z,4.44
2023-01-17T08:27:03.273Z,4.34
2023-01-17T08:29:30.260Z,4.34
2023-01-17T08:31:56.910Z,4.22
2023-01-17T08:34:25.747Z,4.20
2023-01-17T08:36:53.963Z,4.30
2023-01-17T08:39:21.735Z,4.51
2023-01-17T08:41:51.204Z,4.73
2023-01-17T08:44:19.757Z,4.71
2023-01-17T08:46:46.330Z,4.63
2023-01-17T08:49:12.962Z,4.60
2023-01-17T08:51:40.236Z,4.68
2023-01-17T08:54:09.770Z,4.74
2023-01-17T08:56:36.325Z,4.60
2023-01-17T08:59:03.122Z,4.83
2023-01-17T09:01:29.780Z,5.77
2023-01-17T09:03:59.118Z,7.45
2023-01-17T09:06:25.704Z,8.17
2023-01-17T09:08:57.068Z,9.22
2023-01-17T09:11:23.621Z,10.39
2023-01-17T09:13:53.607Z,10.30
2023-01-17T09:16:27.600Z,10.25
2023-01-17T09:18:55.863Z,10.71
2023-01-17T09:21:23.202Z,11.66
2023-01-17T09:23:49.734Z,12.62
2023-01-17T09:26:27.661Z,12.92
2023-01-17T09:28:55.362Z,13.16
2023-01-17T09:31:31.781Z,12.78
2023-01-17T09:33:59.149Z,14.41
2023-01-17T09:36:31.861Z,15.36
2023-01-17T09:38:59.703Z,14.45
2023-01-17T09:41:36.274Z,15.64
2023-01-17T09:44:14.571Z,15.48
2023-01-17T09:46:44.812Z,15.72
2023-01-17T09:49:23.403Z,15.64
2023-01-17T09:51:52.349Z,17.33
2023-01-17T09:54:26.708Z,16.91
2023-01-17T09:57:32.271Z,15.07
2023-01-17T10:00:32.647Z,15.52
2023-01-17T10:03:02.283Z,16.56
2023-01-17T10:06:16.884Z,17.11
2023-01-17T10:08:55.822Z,16.74
2023-01-17T10:12:13.556Z,16.00
2023-01-17T10:14:49.196Z,15.80
2023-01-17T10:17:21.525Z,16.52
2023-01-17T10:20:34.292Z,16.08
2023-01-17T10:23:27.096Z,16.90
2023-01-17T10:26:05.578Z,18.01
2023-01-17T10:28:46.827Z,17.11
2023-01-17T10:31:24.672Z,17.30
2023-01-17T10:33:58.322Z,18.90
2023-01-17T10:36:28.987Z,19.66
2023-01-17T10:39:01.707Z,18.06
2023-01-17T10:41:37.053Z,18.54
2023-01-17T10:44:25.334Z,15.72
2023-01-17T10:46:54.626Z,16.68
2023-01-17T10:49:32.175Z,15.93
2023-01-17T10:52:16.678Z,15.93
2023-01-17T10:54:55.279Z,14.79
2023-01-17T10:57:24.886Z,17.15
2023-01-17T10:59:52.387Z,15.69
2023-01-17T11:02:24.639Z,17.89
2023-01-17T11:05:00.939Z,17.63
2023-01-17T11:07:29.561Z,18.21
2023-01-17T11:09:57.872Z,18.95
2023-01-17T11:12:47.189Z,19.92
2023-01-17T11:15:22.423Z,19.14
2023-01-17T11:18:12.099Z,18.55
2023-01-17T11:20:39.944Z,18.91
2023-01-17T11:23:21.411Z,18.32
2023-01-17T11:25:55.240Z,17.38
2023-01-17T11:28:24.117Z,18.57
2023-01-17T11:30:57.522Z,18.28
2023-01-17T11:33:47.994Z,18.82
2023-01-17T11:36:16.317Z,19.05
2023-01-17T11:38:58.625Z,18.99
2023-01-17T11:41:30.999Z,17.81
2023-01-17T11:44:01.887Z,18.35
2023-01-17T11:46:32.266Z,17.05
2023-01-17T11:49:01.063Z,18.60
2023-01-17T11:51:35.173Z,17.23
2023-01-17T11:54:28.604Z,16.92
2023-01-17T11:57:00.291Z,15.53
2023-01-17T11:59:56.498Z,15.98
2023-01-17T12:02:41.103Z,15.18
2023-01-17T12:05:23.592Z,14.40
2023-01-17T12:08:23.972Z,14.08
2023-01-17T12:11:18.799Z,14.12
2023-01-17T12:14:18.716Z,13.24
2023-01-17T12:16:45.249Z,13.33
2023-01-17T12:19:34.605Z,14.21
2023-01-17T12:22:39.128Z,13.90
2023-01-17T12:25:36.920Z,12.46
2023-01-17T12:28:36.202Z,11.97
2023-01-17T12:31:03.200Z,11.42
2023-01-17T12:33:45.780Z,11.77
2023-01-17T12:36:55.183Z,11.15
2023-01-17T12:39:28.001Z,10.25
2023-01-17T12:42:20.780Z,10.40
2023-01-17T12:44:51.658Z,10.24
2023-01-17T12:47:20.744Z,10.06
2023-01-17T12:50:14.562Z,9.31
2023-01-17T12:53:07.167Z,9.52
2023-01-17T12:55:47.353Z,9.68
2023-01-17T12:58:22.336Z,9.47
2023-01-17T13:00:56.551Z,9.16
2023-01-17T13:03:56.092Z,9.21
2023-01-17T13:06:48.807Z,8.63
2023-01-17T13:09:21.604Z,8.30
2023-01-17T13:12:04.092Z,7.89
2023-01-17T13:14:30.776Z,7.92
2023-01-17T13:17:09.299Z,7.90
2023-01-17T13:19:57.378Z,8.01
2023-01-17T13:22:27.122Z,7.87
2023-01-17T13:25:18.619Z,7.50
2023-01-17T13:27:49.271Z,7.46
2023-01-17T13:30:16.136Z,7.24
2023-01-17T13:33:01.729Z,7.18
2023-01-17T13:36:00.599Z,6.84
2023-01-17T13:38:56.529Z,6.86
2023-01-17T13:41:50.684Z,6.80
2023-01-17T13:44:24.591Z,6.71
2023-01-17T13:47:01.960Z,6.77
2023-01-17T13:49:35.259Z,6.68
2023-01-17T13:52:12.913Z,6.59
2023-01-17T13:54:56.993Z,6.56
2023-01-17T13:57:23.689Z,6.51
2023-01-17T13:59:50.436Z,6.50
2023-01-17T14:02:32.130Z,6.48
2023-01-17T14:05:24.010Z,6.49
2023-01-17T14:08:12.858Z,6.31
2023-01-17T14:10:49.745Z,6.27
2023-01-17T14:13:31.968Z,6.17
2023-01-17T14:15:58.969Z,6.14
2023-01-17T14:18:42.774Z,6.00
2023-01-17T14:21:23.371Z,6.03
2023-01-17T14:23:54.943Z,5.97
2023-01-17T14:26:48.603Z,5.98
2023-01-17T14:29:42.891Z,6.02
2023-01-17T14:32:18.718Z,5.88
2023-01-17T14:34:49.659Z,5.84
2023-01-17T14:37:22.767Z,5.82
2023-01-17T14:39:53.774Z,5.85
2023-01-17T14:42:24.065Z,5.89
2023-01-17T14:45:22.134Z,5.88
2023-01-17T14:47:52.746Z,5.84
2023-01-17T14:50:21.038Z,5.80
2023-01-17T14:52:50.590Z,5.73
2023-01-17T14:55:19.907Z,5.69
2023-01-17T14:57:59.613Z,5.70
2023-01-17T15:00:31.224Z,5.70
2023-01-17T15:02:59.521Z,5.67
2023-01-17T15:05:29.751Z,5.65
2023-01-17T15:08:03.138Z,5.66
2023-01-17T15:10:34.073Z,5.68
2023-01-17T15:13:11.070Z,5.69
2023-01-17T15:15:41.035Z,5.69
2023-01-17T15:18:14.450Z,5.64
2023-01-17T15:20:55.866Z,5.67
2023-01-17T15:23:38.295Z,5.70
2023-01-17T15:26:07.561Z,5.68
2023-01-17T15:28:37.576Z,5.66
2023-01-17T15:31:17.729Z,5.72
2023-01-17T15:33:51.000Z,5.63
2023-01-17T15:36:27.188Z,5.67
2023-01-17T15:39:01.505Z,5.63
2023-01-17T15:41:39.442Z,5.60
2023-01-17T15:44:08.245Z,5.57
2023-01-17T15:46:42.165Z,5.51
2023-01-17T15:49:27.837Z,5.50
2023-01-17T15:52:02.013Z,5.59
2023-01-17T15:54:28.502Z,5.49
2023-01-17T15:57:18.034Z,5.54
2023-01-17T15:59:59.773Z,5.58
2023-01-17T16:02:34.160Z,5.54
2023-01-17T16:05:25.223Z,5.53
2023-01-17T16:07:54.590Z,5.54
2023-01-17T16:10:27.458Z,5.53
2023-01-17T16:12:58.090Z,5.57
2023-01-17T16:15:26.638Z,5.53
2023-01-17T16:18:14.706Z,5.49
2023-01-17T16:20:58.939Z,5.45
2023-01-17T16:23:26.124Z,5.47
2023-01-17T16:25:53.999Z,5.33
2023-01-17T16:28:29.857Z,5.31
2023-01-17T16:30:56.465Z,5.25
2023-01-17T16:33:23.052Z,5.20
2023-01-17T16:35:51.241Z,5.17
2023-01-17T16:38:19.733Z,5.08
2023-01-17T16:40:47.370Z,5.06
2023-01-17T16:43:15.981Z,5.01
2023-01-17T16:45:49.963Z,4.96
2023-01-17T16:48:19.051Z,4.86
2023-01-17T16:50:50.336Z,4.80
2023-01-17T16:53:24.559Z,4.83
2023-01-17T16:55:54.313Z,4.73
2023-01-17T16:58:23.377Z,4.72
2023-01-17T17:00:52.087Z,4.68
2023-01-17T17:03:21.875Z,4.64
2023-01-17T17:06:15.142Z,4.61
2023-01-17T17:08:43.140Z,4.61
2023-01-17T17:11:18.538Z,4.56
2023-01-17T17:13:47.653Z,4.54
2023-01-17T17:16:22.679Z,4.57
2023-01-17T17:19:06.978Z,4.57
2023-01-17T17:21:35.387Z,4.53
2023-01-17T17:24:05.629Z,4.56
2023-01-17T17:26:36.960Z,4.55
2023-01-17T17:29:10.464Z,4.50
2023-01-17T17:31:41.234Z,4.55
2023-01-17T17:34:12.469Z,4.55
2023-01-17T17:36:39.419Z,4.53
2023-01-17T17:39:11.046Z,4.51
2023-01-17T17:41:46.735Z,4.47
2023-01-17T17:44:16.563Z,4.48
2023-01-17T17:46:43.316Z,4.47
2023-01-17T17:49:14.696Z,4.48
2023-01-17T17:51:43.746Z,4.43
2023-01-17T17:54:15.060Z,4.47
2023-01-17T17:56:49.355Z,4.46
2023-01-17T17:59:18.452Z,4.42
2023-01-17T18:01:49.889Z,4.47
2023-01-17T18:04:19.732Z,4.43
2023-01-17T18:06:46.463Z,4.43
2023-01-17T18:09:15.269Z,4.43
2023-01-17T18:11:43.016Z,4.42
2023-01-17T18:16:54.103Z,4.42
2023-01-17T18:19:24.013Z,4.44
2023-01-17T18:21:55.805Z,4.44
2023-01-17T18:24:24.817Z,4.46
2023-01-17T18:26:58.502Z,4.48
2023-01-17T18:29:27.867Z,4.47
2023-01-17T18:31:55.498Z,4.49
2023-01-17T18:34:31.681Z,4.54
2023-01-17T18:37:02.941Z,4.54
2023-01-17T18:39:30.292Z,4.50
2023-01-17T18:41:59.844Z,4.56
2023-01-17T18:44:30.143Z,4.55
2023-01-17T18:47:04.497Z,4.56
2023-01-17T18:49:33.139Z,4.52
2023-01-17T18:52:00.104Z,4.52
2023-01-17T18:54:29.882Z,4.55
2023-01-17T18:56:58.689Z,4.50
2023-01-17T18:59:27.945Z,4.47
2023-01-17T19:01:54.642Z,4.42
2023-01-17T19:04:21.586Z,4.41
2023-01-17T19:06:53.884Z,4.43
2023-01-17T19:09:22.777Z,4.42
2023-01-17T19:11:50.116Z,4.42
2023-01-17T19:14:19.666Z,4.40
2023-01-17T19:16:46.238Z,4.40
2023-01-17T19:19:18.291Z,4.40
2023-01-17T19:21:45.047Z,4.42
2023-01-17T19:24:14.340Z,4.39
2023-01-17T19:26:42.072Z,4.36
2023-01-17T19:29:08.978Z,4.41
2023-01-17T19:31:43.188Z,4.42
2023-01-17T19:34:16.987Z,4.47
2023-01-17T19:36:46.303Z,4.43
2023-01-17T19:39:13.247Z,4.44
2023-01-17T19:41:45.428Z,4.41
2023-01-17T19:44:13.949Z,4.40
2023-01-17T19:46:43.179Z,4.38
2023-01-17T19:49:12.443Z,4.38
2023-01-17T19:51:39.915Z,4.45
2023-01-17T19:54:09.158Z,4.40
2023-01-17T19:56:38.367Z,4.36
2023-01-17T19:59:04.959Z,4.37
2023-01-17T20:01:33.468Z,4.39
2023-01-17T20:04:01.682Z,4.38
2023-01-17T20:06:31.313Z,4.44
2023-01-17T20:08:58.115Z,4.41
2023-01-17T20:11:28.566Z,4.39
2023-01-17T20:13:56.947Z,4.42
2023-01-17T20:16:28.154Z,4.41
2023-01-17T20:18:58.270Z,4.40
2023-01-17T20:21:28.930Z,4.39
2023-01-17T20:23:59.703Z,4.47
2023-01-17T20:26:36.957Z,4.53
2023-01-17T20:29:10.895Z,4.52
2023-01-17T20:31:39.042Z,4.60
2023-01-17T20:34:07.130Z,4.60
2023-01-17T20:36:38.574Z,4.60
2023-01-17T20:39:07.599Z,4.60
2023-01-17T20:41:36.934Z,4.58
2023-01-17T20:44:05.809Z,4.55
2023-01-17T20:46:35.688Z,4.50
2023-01-17T20:49:05.478Z,4.54
2023-01-17T20:51:38.743Z,4.53
2023-01-17T20:54:08.851Z,4.55
2023-01-17T20:56:39.601Z,4.58
2023-01-17T20:59:13.258Z,4.55
2023-01-17T21:01:40.344Z,4.45
2023-01-17T21:04:10.148Z,4.53
2023-01-17T21:06:39.707Z,4.53
2023-01-17T21:09:08.769Z,4.48
2023-01-17T21:11:36.992Z,4.49
2023-01-17T21:14:09.756Z,4.53
2023-01-17T21:16:36.656Z,4.48
2023-01-17T21:19:17.349Z,4.46
2023-01-17T21:21:45.894Z,4.43
2023-01-17T21:24:18.580Z,4.52
2023-01-17T21:26:47.531Z,4.51
2023-01-17T21:29:18.731Z,4.38
2023-01-17T21:31:47.628Z,4.29
2023-01-17T21:34:18.707Z,4.28
2023-01-17T21:36:45.346Z,4.18
2023-01-17T21:39:20.683Z,4.19
2023-01-17T21:41:49.599Z,4.04
2023-01-17T21:44:21.725Z,4.03
2023-01-17T21:46:54.159Z,4.01
2023-01-17T21:49:27.258Z,4.04
2023-01-17T21:51:53.977Z,4.04
2023-01-17T21:54:45.436Z,4.14
2023-01-17T21:57:32.255Z,4.18
2023-01-17T22:00:01.070Z,4.03
2023-01-17T22:02:30.285Z,4.04
2023-01-17T22:04:59.927Z,3.93
2023-01-17T22:07:27.170Z,3.77
2023-01-17T22:09:57.053Z,3.79
2023-01-17T22:12:23.812Z,3.80
2023-01-17T22:14:50.430Z,3.74
2023-01-17T22:17:17.063Z,3.70
2023-01-17T22:19:45.893Z,3.79
2023-01-17T22:22:15.217Z,3.64
2023-01-17T22:24:41.839Z,3.72
2023-01-17T22:27:10.569Z,3.62
2023-01-17T22:29:40.561Z,3.61
2023-01-17T22:32:07.150Z,3.51
2023-01-17T22:34:33.782Z,3.57
2023-01-17T22:37:05.801Z,3.67
2023-01-17T22:39:32.404Z,3.74
2023-01-17T22:41:59.321Z,3.76
2023-01-17T22:44:30.681Z,3.79
2023-01-17T22:47:01.347Z,3.70
2023-01-17T22:49:27.938Z,3.56
2023-01-17T22:51:56.658Z,3.43
2023-01-17T22:54:23.383Z,3.54
2023-01-17T22:56:54.559Z,3.54
2023-01-17T22:59:21.232Z,3.48
2023-01-17T23:01:50.798Z,3.35
2023-01-17T23:04:17.376Z,3.28
2023-01-17T23:06:49.820Z,3.12
2023-01-17T23:09:23.159Z,3.14
2023-01-17T23:11:57.872Z,3.02
2023-01-17T23:14:52.774Z,3.09
2023-01-17T23:17:39.751Z,3.08
2023-01-17T23:20:12.971Z,3.07
2023-01-17T23:22:41.833Z,3.15
2023-01-17T23:25:16.013Z,3.03
2023-01-17T23:28:03.682Z,2.99
2023-01-17T23:30:39.200Z,3.10
2023-01-17T23:33:08.171Z,3.06
2023-01-17T23:35:41.511Z,3.04
2023-01-17T23:38:33.797Z,3.04
2023-01-17T23:41:27.909Z,3.04
2023-01-17T23:43:59.079Z,3.04
2023-01-17T23:46:26.587Z,3.18
2023-01-17T23:48:56.829Z,3.05
2023-01-17T23:51:23.425Z,3.08
2023-01-17T23:53:53.422Z,3.07
2023-01-17T23:56:24.783Z,3.11
2023-01-17T23:58:51.425Z,3.02
